الصفحة الرئيسية
METAR-TAF:

METAR-TAF

مطار :

لاباز, بوليفيا

دائرة عرض: 16-31S, خط طول: 068-11W, ارتفاع: 4058 متر

مراقبة الطقس الحالي

تاريخ ووقت الإصدار 44 دقيقة قبل الساعة 03:00UTC
ريح 4 عقدة من الشمال
درجة الحرارة 6°درجة مئوية
الرطوبة 36%
ضغط 1040 hPa
الرؤية 10 كم أو أكثر

METAR: SLLP 260300Z 01004KT 9999 NSC 06/M08 Q1040

زمن: 23:44 (03:44 UTC)

توقعات

تاريخ ووقت الإصدار 5ساعات و 44 دقيقة قبل الساعة 22:00UTC
التوقعات صالحة من26 الساعة 00 UTC إلى 26 الساعة 24 UTC
ريح 5 عقدة من الشمال الشرقي
الرؤية 10 كم أو أكثر
غيوم قليلة على ارتفاع 1700 قدم
أصبح
من 26 الساعة 13 UTC إلى 26 الساعة 15 UTC
ريح 10 عقدة من الغرب/الشمال الغربي
مؤقت
من 26 الساعة 16 UTC إلى 26 الساعة 20 UTC
ريح 15 عقدة من الغرب/الشمال الغربي تتزايد حتى 25 عقدة

TAF: SLLP 252200Z 2600/2624 04005KT 9999 FEW017 TX16/2619Z TNM03/2610Z BECMG 2613/2615 29010KT TEMPO 2616/2620 30015G25KT

أرصاد الطقس والتوقعات من أكثر من 4000 مطار (تقارير الطقس للمطار METAR والتنبؤ بالطقس بالمطارTAF).

المحطات المتاحة هي النقط الصفراء والحمراء على الخريطة.

حرك المؤشر فوق النقطة لمعرفة اسم المحطة.

ثم انقر لمعرفة أرصاد وتوقعات الطقس.

لتغيير الخارطة: اضغط على الأزرار الخضراء مع رمز الصليب الأسود للتكبير. على الزر الأخضر مع شرطة للتصغير، أو على الأسهم الخضراء للخرائط المجاورة.


METAR-TAF: